sensor_id;sensor_type;location;lat;lon;timestamp;P1;durP1;ratioP1;P2;durP2;ratioP2
32611;SDS011;19030;49.478;8.986;2022-07-17T00:01:22;4.75;;;2.83;;
32611;SDS011;19030;49.478;8.986;2022-07-17T00:03:23;6.40;;;3.00;;
32611;SDS011;19030;49.478;8.986;2022-07-17T00:05:23;4.70;;;2.67;;
32611;SDS011;19030;49.478;8.986;2022-07-17T00:07:24;5.50;;;3.22;;
32611;SDS011;19030;49.478;8.986;2022-07-17T00:09:24;5.28;;;2.90;;
32611;SDS011;19030;49.478;8.986;2022-07-17T00:11:25;5.90;;;3.38;;
32611;SDS011;19030;49.478;8.986;2022-07-17T00:13:25;6.50;;;3.00;;
32611;SDS011;19030;49.478;8.986;2022-07-17T00:15:26;5.43;;;3.10;;
32611;SDS011;19030;49.478;8.986;2022-07-17T00:17:27;4.88;;;3.10;;
32611;SDS011;19030;49.478;8.986;2022-07-17T00:19:29;4.68;;;3.15;;
32611;SDS011;19030;49.478;8.986;2022-07-17T00:21:29;5.55;;;3.35;;
32611;SDS011;19030;49.478;8.986;2022-07-17T00:23:30;4.95;;;3.17;;
32611;SDS011;19030;49.478;8.986;2022-07-17T00:25:30;6.03;;;3.13;;
32611;SDS011;19030;49.478;8.986;2022-07-17T00:27:32;5.47;;;3.25;;
32611;SDS011;19030;49.478;8.986;2022-07-17T00:29:32;7.22;;;3.38;;
32611;SDS011;19030;49.478;8.986;2022-07-17T00:31:33;5.10;;;3.35;;
32611;SDS011;19030;49.478;8.986;2022-07-17T00:33:34;6.63;;;3.58;;
32611;SDS011;19030;49.478;8.986;2022-07-17T00:35:34;4.85;;;3.20;;
32611;SDS011;19030;49.478;8.986;2022-07-17T00:37:42;4.72;;;3.00;;
32611;SDS011;19030;49.478;8.986;2022-07-17T00:39:44;7.45;;;3.30;;
32611;SDS011;19030;49.478;8.986;2022-07-17T00:41:45;6.03;;;3.30;;
32611;SDS011;19030;49.478;8.986;2022-07-17T00:43:45;5.13;;;3.50;;
32611;SDS011;19030;49.478;8.986;2022-07-17T00:45:53;5.68;;;3.50;;
32611;SDS011;19030;49.478;8.986;2022-07-17T00:47:56;5.57;;;3.42;;
32611;SDS011;19030;49.478;8.986;2022-07-17T00:49:59;6.72;;;3.60;;
32611;SDS011;19030;49.478;8.986;2022-07-17T00:52:00;6.00;;;3.72;;
32611;SDS011;19030;49.478;8.986;2022-07-17T00:54:01;5.72;;;3.53;;
32611;SDS011;19030;49.478;8.986;2022-07-17T00:56:03;6.10;;;3.20;;
32611;SDS011;19030;49.478;8.986;2022-07-17T00:58:05;5.28;;;3.10;;
32611;SDS011;19030;49.478;8.986;2022-07-17T01:00:09;5.65;;;3.58;;
32611;SDS011;19030;49.478;8.986;2022-07-17T01:02:11;5.47;;;3.35;;
32611;SDS011;19030;49.478;8.986;2022-07-17T01:04:13;5.30;;;3.22;;
32611;SDS011;19030;49.478;8.986;2022-07-17T01:06:14;5.53;;;3.40;;
32611;SDS011;19030;49.478;8.986;2022-07-17T01:08:14;5.68;;;3.10;;
32611;SDS011;19030;49.478;8.986;2022-07-17T01:10:16;5.68;;;3.50;;
32611;SDS011;19030;49.478;8.986;2022-07-17T01:12:17;7.00;;;3.38;;
32611;SDS011;19030;49.478;8.986;2022-07-17T01:14:18;4.72;;;3.03;;
32611;SDS011;19030;49.478;8.986;2022-07-17T01:16:19;5.28;;;3.15;;
32611;SDS011;19030;49.478;8.986;2022-07-17T01:18:20;6.93;;;3.95;;
32611;SDS011;19030;49.478;8.986;2022-07-17T01:20:22;6.25;;;3.03;;
32611;SDS011;19030;49.478;8.986;2022-07-17T01:22:23;4.63;;;2.92;;
32611;SDS011;19030;49.478;8.986;2022-07-17T01:24:25;4.93;;;3.22;;
32611;SDS011;19030;49.478;8.986;2022-07-17T01:26:25;5.05;;;3.28;;
32611;SDS011;19030;49.478;8.986;2022-07-17T01:28:26;5.95;;;3.28;;
32611;SDS011;19030;49.478;8.986;2022-07-17T01:30:27;6.47;;;3.60;;
32611;SDS011;19030;49.478;8.986;2022-07-17T01:32:31;5.05;;;3.13;;
32611;SDS011;19030;49.478;8.986;2022-07-17T01:34:33;6.38;;;3.72;;
32611;SDS011;19030;49.478;8.986;2022-07-17T01:36:34;6.40;;;3.83;;
32611;SDS011;19030;49.478;8.986;2022-07-17T01:38:35;6.63;;;3.70;;
32611;SDS011;19030;49.478;8.986;2022-07-17T01:40:36;5.53;;;2.95;;
32611;SDS011;19030;49.478;8.986;2022-07-17T01:42:37;5.28;;;3.45;;
32611;SDS011;19030;49.478;8.986;2022-07-17T01:44:37;5.20;;;3.28;;
32611;SDS011;19030;49.478;8.986;2022-07-17T01:46:38;5.65;;;3.28;;
32611;SDS011;19030;49.478;8.986;2022-07-17T01:48:38;4.95;;;3.00;;
32611;SDS011;19030;49.478;8.986;2022-07-17T01:50:39;5.50;;;3.30;;
32611;SDS011;19030;49.478;8.986;2022-07-17T01:52:41;7.45;;;3.40;;
32611;SDS011;19030;49.478;8.986;2022-07-17T01:54:43;4.90;;;3.00;;
32611;SDS011;19030;49.478;8.986;2022-07-17T01:56:44;5.55;;;3.10;;
32611;SDS011;19030;49.478;8.986;2022-07-17T01:58:45;6.38;;;3.28;;
32611;SDS011;19030;49.478;8.986;2022-07-17T02:00:45;6.20;;;3.35;;
32611;SDS011;19030;49.478;8.986;2022-07-17T02:02:46;5.72;;;3.47;;
32611;SDS011;19030;49.478;8.986;2022-07-17T02:04:47;5.68;;;3.20;;
32611;SDS011;19030;49.478;8.986;2022-07-17T02:06:47;5.93;;;3.65;;
32611;SDS011;19030;49.478;8.986;2022-07-17T02:08:48;5.53;;;3.25;;
32611;SDS011;19030;49.478;8.986;2022-07-17T02:10:50;6.15;;;3.65;;
32611;SDS011;19030;49.478;8.986;2022-07-17T02:12:51;6.68;;;3.58;;
32611;SDS011;19030;49.478;8.986;2022-07-17T02:14:51;5.00;;;3.20;;
32611;SDS011;19030;49.478;8.986;2022-07-17T02:16:52;5.57;;;3.60;;
32611;SDS011;19030;49.478;8.986;2022-07-17T02:18:53;6.85;;;3.47;;
32611;SDS011;19030;49.478;8.986;2022-07-17T02:20:54;5.43;;;3.35;;
32611;SDS011;19030;49.478;8.986;2022-07-17T02:22:54;5.90;;;3.40;;
32611;SDS011;19030;49.478;8.986;2022-07-17T02:24:55;4.60;;;3.15;;
32611;SDS011;19030;49.478;8.986;2022-07-17T02:26:55;5.47;;;3.35;;
32611;SDS011;19030;49.478;8.986;2022-07-17T02:28:56;6.18;;;3.58;;
32611;SDS011;19030;49.478;8.986;2022-07-17T02:30:57;7.75;;;3.60;;
32611;SDS011;19030;49.478;8.986;2022-07-17T02:32:57;4.72;;;2.97;;
32611;SDS011;19030;49.478;8.986;2022-07-17T02:34:58;5.88;;;3.50;;
32611;SDS011;19030;49.478;8.986;2022-07-17T02:36:58;6.40;;;3.25;;
32611;SDS011;19030;49.478;8.986;2022-07-17T02:38:59;5.50;;;3.33;;
32611;SDS011;19030;49.478;8.986;2022-07-17T02:41:01;5.00;;;3.20;;
32611;SDS011;19030;49.478;8.986;2022-07-17T02:43:02;6.07;;;3.20;;
32611;SDS011;19030;49.478;8.986;2022-07-17T02:45:02;6.45;;;3.25;;
32611;SDS011;19030;49.478;8.986;2022-07-17T02:47:03;5.03;;;3.05;;
32611;SDS011;19030;49.478;8.986;2022-07-17T02:49:04;5.78;;;3.28;;
32611;SDS011;19030;49.478;8.986;2022-07-17T02:51:06;5.28;;;3.15;;
32611;SDS011;19030;49.478;8.986;2022-07-17T02:53:06;5.10;;;3.15;;
32611;SDS011;19030;49.478;8.986;2022-07-17T02:55:07;6.10;;;2.92;;
32611;SDS011;19030;49.478;8.986;2022-07-17T02:57:08;4.95;;;3.10;;
32611;SDS011;19030;49.478;8.986;2022-07-17T02:59:09;4.90;;;2.92;;
32611;SDS011;19030;49.478;8.986;2022-07-17T03:01:09;5.15;;;3.17;;
32611;SDS011;19030;49.478;8.986;2022-07-17T03:03:10;4.57;;;2.80;;
32611;SDS011;19030;49.478;8.986;2022-07-17T03:05:11;5.00;;;3.13;;
32611;SDS011;19030;49.478;8.986;2022-07-17T03:07:13;5.35;;;3.03;;
32611;SDS011;19030;49.478;8.986;2022-07-17T03:09:14;7.65;;;3.88;;
32611;SDS011;19030;49.478;8.986;2022-07-17T03:11:14;4.55;;;2.90;;
32611;SDS011;19030;49.478;8.986;2022-07-17T03:13:15;5.65;;;3.45;;
32611;SDS011;19030;49.478;8.986;2022-07-17T03:15:15;6.38;;;3.25;;
32611;SDS011;19030;49.478;8.986;2022-07-17T03:17:16;6.55;;;3.10;;
32611;SDS011;19030;49.478;8.986;2022-07-17T03:19:17;7.85;;;3.50;;
32611;SDS011;19030;49.478;8.986;2022-07-17T03:21:18;6.47;;;3.40;;
32611;SDS011;19030;49.478;8.986;2022-07-17T03:23:19;5.25;;;3.38;;
32611;SDS011;19030;49.478;8.986;2022-07-17T03:25:20;4.80;;;2.97;;
32611;SDS011;19030;49.478;8.986;2022-07-17T03:27:20;4.65;;;3.03;;
32611;SDS011;19030;49.478;8.986;2022-07-17T03:29:21;5.18;;;3.28;;
32611;SDS011;19030;49.478;8.986;2022-07-17T03:31:21;4.82;;;3.08;;
32611;SDS011;19030;49.478;8.986;2022-07-17T03:33:22;5.13;;;3.28;;
32611;SDS011;19030;49.478;8.986;2022-07-17T03:35:22;5.43;;;2.95;;
32611;SDS011;19030;49.478;8.986;2022-07-17T03:37:23;6.38;;;3.67;;
32611;SDS011;19030;49.478;8.986;2022-07-17T03:39:23;6.35;;;3.38;;
32611;SDS011;19030;49.478;8.986;2022-07-17T03:41:24;6.93;;;3.63;;
32611;SDS011;19030;49.478;8.986;2022-07-17T03:43:25;5.15;;;3.20;;
32611;SDS011;19030;49.478;8.986;2022-07-17T03:45:26;4.78;;;3.08;;
32611;SDS011;19030;49.478;8.986;2022-07-17T03:47:27;6.15;;;3.25;;
32611;SDS011;19030;49.478;8.986;2022-07-17T03:49:27;5.15;;;3.67;;
32611;SDS011;19030;49.478;8.986;2022-07-17T03:51:28;5.20;;;3.13;;
32611;SDS011;19030;49.478;8.986;2022-07-17T03:53:28;6.55;;;2.95;;
32611;SDS011;19030;49.478;8.986;2022-07-17T03:55:29;5.25;;;2.72;;
32611;SDS011;19030;49.478;8.986;2022-07-17T03:57:30;4.07;;;2.63;;
32611;SDS011;19030;49.478;8.986;2022-07-17T03:59:30;5.82;;;2.65;;
32611;SDS011;19030;49.478;8.986;2022-07-17T04:01:31;5.57;;;2.67;;
32611;SDS011;19030;49.478;8.986;2022-07-17T04:03:31;5.32;;;2.90;;
32611;SDS011;19030;49.478;8.986;2022-07-17T04:05:32;6.75;;;3.15;;
32611;SDS011;19030;49.478;8.986;2022-07-17T04:07:32;4.38;;;2.65;;
32611;SDS011;19030;49.478;8.986;2022-07-17T04:09:33;4.60;;;2.50;;
32611;SDS011;19030;49.478;8.986;2022-07-17T04:11:33;6.05;;;2.78;;
32611;SDS011;19030;49.478;8.986;2022-07-17T04:13:34;4.60;;;2.55;;
32611;SDS011;19030;49.478;8.986;2022-07-17T04:15:35;5.35;;;2.70;;
32611;SDS011;19030;49.478;8.986;2022-07-17T04:17:55;4.85;;;2.88;;
32611;SDS011;19030;49.478;8.986;2022-07-17T04:19:56;4.63;;;2.70;;
32611;SDS011;19030;49.478;8.986;2022-07-17T04:21:57;8.00;;;3.08;;
32611;SDS011;19030;49.478;8.986;2022-07-17T04:23:57;6.00;;;2.78;;
32611;SDS011;19030;49.478;8.986;2022-07-17T04:25:58;5.05;;;2.72;;
32611;SDS011;19030;49.478;8.986;2022-07-17T04:27:59;4.35;;;2.50;;
32611;SDS011;19030;49.478;8.986;2022-07-17T04:29:59;4.15;;;2.50;;
32611;SDS011;19030;49.478;8.986;2022-07-17T04:32:00;4.10;;;2.47;;
32611;SDS011;19030;49.478;8.986;2022-07-17T04:34:01;6.53;;;2.80;;
32611;SDS011;19030;49.478;8.986;2022-07-17T04:36:01;4.60;;;2.60;;
32611;SDS011;19030;49.478;8.986;2022-07-17T04:38:02;4.18;;;2.47;;
32611;SDS011;19030;49.478;8.986;2022-07-17T04:40:04;6.07;;;2.80;;
32611;SDS011;19030;49.478;8.986;2022-07-17T04:42:05;4.38;;;2.55;;
32611;SDS011;19030;49.478;8.986;2022-07-17T04:44:06;4.32;;;2.70;;
32611;SDS011;19030;49.478;8.986;2022-07-17T04:46:06;4.68;;;2.60;;
32611;SDS011;19030;49.478;8.986;2022-07-17T04:48:07;6.07;;;2.90;;
32611;SDS011;19030;49.478;8.986;2022-07-17T04:50:08;7.22;;;2.60;;
32611;SDS011;19030;49.478;8.986;2022-07-17T04:52:09;4.57;;;2.67;;
32611;SDS011;19030;49.478;8.986;2022-07-17T04:54:09;4.88;;;2.28;;
32611;SDS011;19030;49.478;8.986;2022-07-17T04:56:10;4.95;;;2.53;;
32611;SDS011;19030;49.478;8.986;2022-07-17T04:58:10;4.35;;;2.45;;
32611;SDS011;19030;49.478;8.986;2022-07-17T05:00:11;4.97;;;2.70;;
32611;SDS011;19030;49.478;8.986;2022-07-17T05:02:12;4.20;;;2.53;;
32611;SDS011;19030;49.478;8.986;2022-07-17T05:04:13;3.10;;;2.10;;
32611;SDS011;19030;49.478;8.986;2022-07-17T05:06:13;5.10;;;2.70;;
32611;SDS011;19030;49.478;8.986;2022-07-17T05:08:14;5.88;;;2.80;;
32611;SDS011;19030;49.478;8.986;2022-07-17T05:10:14;4.35;;;2.67;;
32611;SDS011;19030;49.478;8.986;2022-07-17T05:12:15;4.43;;;2.70;;
32611;SDS011;19030;49.478;8.986;2022-07-17T05:14:16;5.70;;;2.72;;
32611;SDS011;19030;49.478;8.986;2022-07-17T05:16:16;5.18;;;2.42;;
32611;SDS011;19030;49.478;8.986;2022-07-17T05:18:17;6.40;;;2.55;;
32611;SDS011;19030;49.478;8.986;2022-07-17T05:20:18;4.65;;;2.45;;
32611;SDS011;19030;49.478;8.986;2022-07-17T05:22:18;4.50;;;2.70;;
32611;SDS011;19030;49.478;8.986;2022-07-17T05:24:19;4.63;;;2.60;;
32611;SDS011;19030;49.478;8.986;2022-07-17T05:26:19;5.18;;;2.60;;
32611;SDS011;19030;49.478;8.986;2022-07-17T05:28:20;4.32;;;2.40;;
32611;SDS011;19030;49.478;8.986;2022-07-17T05:30:20;3.88;;;2.53;;
32611;SDS011;19030;49.478;8.986;2022-07-17T05:32:21;4.13;;;2.58;;
32611;SDS011;19030;49.478;8.986;2022-07-17T05:34:21;5.03;;;2.40;;
32611;SDS011;19030;49.478;8.986;2022-07-17T05:36:22;5.43;;;2.55;;
32611;SDS011;19030;49.478;8.986;2022-07-17T05:38:22;4.75;;;2.33;;
32611;SDS011;19030;49.478;8.986;2022-07-17T05:40:23;4.38;;;2.40;;
32611;SDS011;19030;49.478;8.986;2022-07-17T05:42:25;4.13;;;2.30;;
32611;SDS011;19030;49.478;8.986;2022-07-17T05:44:26;4.43;;;2.25;;
32611;SDS011;19030;49.478;8.986;2022-07-17T05:46:26;4.53;;;2.33;;
32611;SDS011;19030;49.478;8.986;2022-07-17T05:48:29;4.03;;;2.13;;
32611;SDS011;19030;49.478;8.986;2022-07-17T05:50:30;3.72;;;2.25;;
32611;SDS011;19030;49.478;8.986;2022-07-17T05:52:31;3.65;;;1.90;;
32611;SDS011;19030;49.478;8.986;2022-07-17T05:54:32;4.47;;;2.13;;
32611;SDS011;19030;49.478;8.986;2022-07-17T05:56:33;4.68;;;2.00;;
32611;SDS011;19030;49.478;8.986;2022-07-17T05:58:33;3.78;;;1.90;;
32611;SDS011;19030;49.478;8.986;2022-07-17T06:00:34;4.50;;;2.38;;
32611;SDS011;19030;49.478;8.986;2022-07-17T06:02:35;4.78;;;2.38;;
32611;SDS011;19030;49.478;8.986;2022-07-17T06:04:35;3.97;;;2.28;;
32611;SDS011;19030;49.478;8.986;2022-07-17T06:06:36;4.65;;;2.20;;
32611;SDS011;19030;49.478;8.986;2022-07-17T06:08:36;4.90;;;2.15;;
32611;SDS011;19030;49.478;8.986;2022-07-17T06:10:37;9.70;;;2.53;;
32611;SDS011;19030;49.478;8.986;2022-07-17T06:12:40;3.30;;;2.00;;
32611;SDS011;19030;49.478;8.986;2022-07-17T06:14:41;3.92;;;2.08;;
32611;SDS011;19030;49.478;8.986;2022-07-17T06:16:41;6.97;;;2.90;;
32611;SDS011;19030;49.478;8.986;2022-07-17T06:18:42;5.40;;;2.67;;
32611;SDS011;19030;49.478;8.986;2022-07-17T06:20:42;4.75;;;2.42;;
32611;SDS011;19030;49.478;8.986;2022-07-17T06:22:43;4.22;;;2.30;;
32611;SDS011;19030;49.478;8.986;2022-07-17T06:24:44;4.35;;;2.30;;
32611;SDS011;19030;49.478;8.986;2022-07-17T06:26:45;3.75;;;2.20;;
32611;SDS011;19030;49.478;8.986;2022-07-17T06:28:46;6.22;;;2.40;;
32611;SDS011;19030;49.478;8.986;2022-07-17T06:30:46;4.25;;;2.25;;
32611;SDS011;19030;49.478;8.986;2022-07-17T06:32:47;4.38;;;2.00;;
32611;SDS011;19030;49.478;8.986;2022-07-17T06:34:47;6.50;;;2.40;;
32611;SDS011;19030;49.478;8.986;2022-07-17T06:36:48;5.75;;;2.55;;
32611;SDS011;19030;49.478;8.986;2022-07-17T06:38:48;4.45;;;2.00;;
32611;SDS011;19030;49.478;8.986;2022-07-17T06:40:49;4.43;;;2.15;;
32611;SDS011;19030;49.478;8.986;2022-07-17T06:42:50;3.67;;;1.90;;
32611;SDS011;19030;49.478;8.986;2022-07-17T06:44:50;5.60;;;2.20;;
32611;SDS011;19030;49.478;8.986;2022-07-17T06:46:51;2.58;;;1.90;;
32611;SDS011;19030;49.478;8.986;2022-07-17T06:48:51;4.15;;;1.98;;
32611;SDS011;19030;49.478;8.986;2022-07-17T06:50:52;5.05;;;2.00;;
32611;SDS011;19030;49.478;8.986;2022-07-17T06:52:52;3.83;;;2.00;;
32611;SDS011;19030;49.478;8.986;2022-07-17T06:54:53;2.80;;;1.75;;
32611;SDS011;19030;49.478;8.986;2022-07-17T06:56:54;3.50;;;1.80;;
32611;SDS011;19030;49.478;8.986;2022-07-17T06:58:54;4.13;;;2.10;;
32611;SDS011;19030;49.478;8.986;2022-07-17T07:00:55;3.78;;;1.95;;
32611;SDS011;19030;49.478;8.986;2022-07-17T07:02:55;5.63;;;2.58;;
32611;SDS011;19030;49.478;8.986;2022-07-17T07:04:56;6.07;;;2.45;;
32611;SDS011;19030;49.478;8.986;2022-07-17T07:06:57;3.47;;;2.10;;
32611;SDS011;19030;49.478;8.986;2022-07-17T07:08:57;5.78;;;2.22;;
32611;SDS011;19030;49.478;8.986;2022-07-17T07:10:58;4.93;;;2.05;;
32611;SDS011;19030;49.478;8.986;2022-07-17T07:12:58;6.38;;;2.15;;
32611;SDS011;19030;49.478;8.986;2022-07-17T07:14:59;4.85;;;2.10;;
32611;SDS011;19030;49.478;8.986;2022-07-17T07:16:59;4.20;;;2.15;;
32611;SDS011;19030;49.478;8.986;2022-07-17T07:19:00;4.00;;;2.00;;
32611;SDS011;19030;49.478;8.986;2022-07-17T07:21:01;6.30;;;2.33;;
32611;SDS011;19030;49.478;8.986;2022-07-17T07:23:01;5.00;;;2.00;;
32611;SDS011;19030;49.478;8.986;2022-07-17T07:25:02;3.92;;;1.98;;
32611;SDS011;19030;49.478;8.986;2022-07-17T07:27:04;4.20;;;1.88;;
32611;SDS011;19030;49.478;8.986;2022-07-17T07:29:04;9.60;;;2.00;;
32611;SDS011;19030;49.478;8.986;2022-07-17T07:31:05;4.82;;;1.90;;
32611;SDS011;19030;49.478;8.986;2022-07-17T07:33:05;3.45;;;1.83;;
32611;SDS011;19030;49.478;8.986;2022-07-17T07:35:06;4.38;;;1.75;;
32611;SDS011;19030;49.478;8.986;2022-07-17T07:37:08;4.05;;;1.83;;
32611;SDS011;19030;49.478;8.986;2022-07-17T07:39:08;4.88;;;2.10;;
32611;SDS011;19030;49.478;8.986;2022-07-17T07:41:09;5.75;;;1.98;;
32611;SDS011;19030;49.478;8.986;2022-07-17T07:43:09;4.75;;;2.00;;
32611;SDS011;19030;49.478;8.986;2022-07-17T07:45:10;4.72;;;1.70;;
32611;SDS011;19030;49.478;8.986;2022-07-17T07:47:11;7.10;;;1.80;;
32611;SDS011;19030;49.478;8.986;2022-07-17T07:49:11;3.15;;;1.67;;
32611;SDS011;19030;49.478;8.986;2022-07-17T07:51:12;4.18;;;1.58;;
32611;SDS011;19030;49.478;8.986;2022-07-17T07:53:13;6.88;;;1.92;;
32611;SDS011;19030;49.478;8.986;2022-07-17T07:55:13;5.13;;;1.90;;
32611;SDS011;19030;49.478;8.986;2022-07-17T07:57:15;5.15;;;1.90;;
32611;SDS011;19030;49.478;8.986;2022-07-17T07:59:15;5.30;;;1.90;;
32611;SDS011;19030;49.478;8.986;2022-07-17T08:01:16;5.15;;;2.13;;
32611;SDS011;19030;49.478;8.986;2022-07-17T08:03:17;5.55;;;2.10;;
32611;SDS011;19030;49.478;8.986;2022-07-17T08:05:17;5.95;;;1.80;;
32611;SDS011;19030;49.478;8.986;2022-07-17T08:07:18;3.63;;;1.60;;
32611;SDS011;19030;49.478;8.986;2022-07-17T08:09:18;7.63;;;1.90;;
32611;SDS011;19030;49.478;8.986;2022-07-17T08:11:19;7.93;;;2.20;;
32611;SDS011;19030;49.478;8.986;2022-07-17T08:13:20;3.95;;;1.83;;
32611;SDS011;19030;49.478;8.986;2022-07-17T08:15:20;5.30;;;1.70;;
32611;SDS011;19030;49.478;8.986;2022-07-17T08:17:21;5.68;;;1.75;;
32611;SDS011;19030;49.478;8.986;2022-07-17T08:19:22;6.75;;;2.10;;
32611;SDS011;19030;49.478;8.986;2022-07-17T08:21:22;5.53;;;1.90;;
32611;SDS011;19030;49.478;8.986;2022-07-17T08:23:23;5.00;;;1.92;;
32611;SDS011;19030;49.478;8.986;2022-07-17T08:25:24;4.35;;;1.77;;
32611;SDS011;19030;49.478;8.986;2022-07-17T08:27:24;4.97;;;2.08;;
32611;SDS011;19030;49.478;8.986;2022-07-17T08:29:25;4.13;;;1.75;;
32611;SDS011;19030;49.478;8.986;2022-07-17T08:31:25;4.32;;;1.83;;
32611;SDS011;19030;49.478;8.986;2022-07-17T08:33:26;3.95;;;1.90;;
32611;SDS011;19030;49.478;8.986;2022-07-17T08:35:27;4.82;;;1.90;;
32611;SDS011;19030;49.478;8.986;2022-07-17T08:37:28;4.82;;;2.05;;
32611;SDS011;19030;49.478;8.986;2022-07-17T08:39:29;4.75;;;2.08;;
32611;SDS011;19030;49.478;8.986;2022-07-17T08:41:29;3.72;;;1.77;;
32611;SDS011;19030;49.478;8.986;2022-07-17T08:43:30;5.28;;;1.95;;
32611;SDS011;19030;49.478;8.986;2022-07-17T08:45:30;4.32;;;1.60;;
32611;SDS011;19030;49.478;8.986;2022-07-17T08:47:31;4.10;;;2.00;;
32611;SDS011;19030;49.478;8.986;2022-07-17T08:49:32;4.63;;;1.70;;
32611;SDS011;19030;49.478;8.986;2022-07-17T08:51:34;6.57;;;1.90;;
32611;SDS011;19030;49.478;8.986;2022-07-17T08:53:35;5.45;;;1.90;;
32611;SDS011;19030;49.478;8.986;2022-07-17T08:55:35;4.85;;;1.90;;
32611;SDS011;19030;49.478;8.986;2022-07-17T08:57:37;5.07;;;1.88;;
32611;SDS011;19030;49.478;8.986;2022-07-17T08:59:39;3.40;;;1.83;;
32611;SDS011;19030;49.478;8.986;2022-07-17T09:01:41;1.98;;;1.50;;
32611;SDS011;19030;49.478;8.986;2022-07-17T09:03:41;5.32;;;1.60;;
32611;SDS011;19030;49.478;8.986;2022-07-17T09:05:59;4.93;;;1.92;;
32611;SDS011;19030;49.478;8.986;2022-07-17T09:08:00;7.35;;;1.90;;
32611;SDS011;19030;49.478;8.986;2022-07-17T09:10:01;5.10;;;1.95;;
32611;SDS011;19030;49.478;8.986;2022-07-17T09:12:02;3.15;;;1.70;;
32611;SDS011;19030;49.478;8.986;2022-07-17T09:14:04;3.88;;;1.73;;
32611;SDS011;19030;49.478;8.986;2022-07-17T09:18:07;3.55;;;1.67;;
32611;SDS011;19030;49.478;8.986;2022-07-17T09:20:12;4.80;;;1.83;;
32611;SDS011;19030;49.478;8.986;2022-07-17T09:24:18;5.47;;;2.00;;
32611;SDS011;19030;49.478;8.986;2022-07-17T09:26:19;4.95;;;1.98;;
32611;SDS011;19030;49.478;8.986;2022-07-17T09:28:20;5.90;;;2.00;;
32611;SDS011;19030;49.478;8.986;2022-07-17T09:30:22;2.85;;;1.73;;
32611;SDS011;19030;49.478;8.986;2022-07-17T09:32:23;3.65;;;1.75;;
32611;SDS011;19030;49.478;8.986;2022-07-17T09:34:25;4.03;;;2.03;;
32611;SDS011;19030;49.478;8.986;2022-07-17T09:36:26;4.88;;;2.05;;
32611;SDS011;19030;49.478;8.986;2022-07-17T09:38:28;4.00;;;1.70;;
32611;SDS011;19030;49.478;8.986;2022-07-17T09:40:30;5.57;;;1.90;;
32611;SDS011;19030;49.478;8.986;2022-07-17T09:42:54;4.38;;;1.85;;
32611;SDS011;19030;49.478;8.986;2022-07-17T09:47:00;2.88;;;1.70;;
32611;SDS011;19030;49.478;8.986;2022-07-17T09:49:05;3.95;;;1.73;;
32611;SDS011;19030;49.478;8.986;2022-07-17T09:51:09;4.90;;;1.75;;
32611;SDS011;19030;49.478;8.986;2022-07-17T09:53:11;4.43;;;1.80;;
32611;SDS011;19030;49.478;8.986;2022-07-17T09:55:12;4.57;;;1.92;;
32611;SDS011;19030;49.478;8.986;2022-07-17T09:57:14;4.32;;;1.92;;
32611;SDS011;19030;49.478;8.986;2022-07-17T09:59:16;5.45;;;2.17;;
32611;SDS011;19030;49.478;8.986;2022-07-17T10:01:18;3.70;;;1.80;;
32611;SDS011;19030;49.478;8.986;2022-07-17T10:03:19;5.10;;;2.20;;
32611;SDS011;19030;49.478;8.986;2022-07-17T10:05:20;5.43;;;2.00;;
32611;SDS011;19030;49.478;8.986;2022-07-17T10:07:21;4.00;;;1.92;;
32611;SDS011;19030;49.478;8.986;2022-07-17T10:09:21;3.08;;;1.50;;
32611;SDS011;19030;49.478;8.986;2022-07-17T10:11:23;5.78;;;2.15;;
32611;SDS011;19030;49.478;8.986;2022-07-17T10:13:26;3.72;;;1.80;;
32611;SDS011;19030;49.478;8.986;2022-07-17T10:15:28;6.18;;;2.03;;
32611;SDS011;19030;49.478;8.986;2022-07-17T10:17:28;3.22;;;1.70;;
32611;SDS011;19030;49.478;8.986;2022-07-17T10:19:31;4.97;;;1.70;;
32611;SDS011;19030;49.478;8.986;2022-07-17T10:21:32;5.90;;;1.67;;
32611;SDS011;19030;49.478;8.986;2022-07-17T10:23:33;5.38;;;2.00;;
32611;SDS011;19030;49.478;8.986;2022-07-17T10:25:33;6.43;;;2.00;;
32611;SDS011;19030;49.478;8.986;2022-07-17T10:27:35;3.58;;;1.55;;
32611;SDS011;19030;49.478;8.986;2022-07-17T10:29:37;3.38;;;1.85;;
32611;SDS011;19030;49.478;8.986;2022-07-17T10:31:48;1.65;;;1.55;;
32611;SDS011;19030;49.478;8.986;2022-07-17T10:33:55;6.20;;;2.10;;
32611;SDS011;19030;49.478;8.986;2022-07-17T10:35:59;4.60;;;1.88;;
32611;SDS011;19030;49.478;8.986;2022-07-17T10:38:13;5.03;;;1.75;;
32611;SDS011;19030;49.478;8.986;2022-07-17T10:40:24;2.30;;;1.70;;
32611;SDS011;19030;49.478;8.986;2022-07-17T10:44:54;4.10;;;1.98;;
32611;SDS011;19030;49.478;8.986;2022-07-17T10:47:09;4.68;;;1.90;;
32611;SDS011;19030;49.478;8.986;2022-07-17T10:49:09;5.07;;;1.75;;
32611;SDS011;19030;49.478;8.986;2022-07-17T10:51:10;3.65;;;1.90;;
32611;SDS011;19030;49.478;8.986;2022-07-17T10:53:30;4.13;;;1.73;;
32611;SDS011;19030;49.478;8.986;2022-07-17T10:55:32;4.47;;;1.88;;
32611;SDS011;19030;49.478;8.986;2022-07-17T10:57:38;3.72;;;1.70;;
32611;SDS011;19030;49.478;8.986;2022-07-17T10:59:41;3.97;;;1.73;;
32611;SDS011;19030;49.478;8.986;2022-07-17T11:01:42;3.08;;;1.75;;
32611;SDS011;19030;49.478;8.986;2022-07-17T11:05:51;2.97;;;1.52;;
32611;SDS011;19030;49.478;8.986;2022-07-17T11:07:58;5.18;;;1.75;;
32611;SDS011;19030;49.478;8.986;2022-07-17T11:10:00;5.88;;;1.90;;
32611;SDS011;19030;49.478;8.986;2022-07-17T11:12:01;4.43;;;1.80;;
32611;SDS011;19030;49.478;8.986;2022-07-17T11:16:27;3.38;;;1.92;;
32611;SDS011;19030;49.478;8.986;2022-07-17T11:18:29;4.00;;;1.70;;
32611;SDS011;19030;49.478;8.986;2022-07-17T11:20:29;6.38;;;2.13;;
32611;SDS011;19030;49.478;8.986;2022-07-17T11:22:30;6.30;;;2.00;;
32611;SDS011;19030;49.478;8.986;2022-07-17T11:24:37;3.97;;;1.90;;
32611;SDS011;19030;49.478;8.986;2022-07-17T11:26:48;4.85;;;1.70;;
32611;SDS011;19030;49.478;8.986;2022-07-17T11:28:49;3.70;;;1.90;;
32611;SDS011;19030;49.478;8.986;2022-07-17T11:30:52;7.75;;;1.80;;
32611;SDS011;19030;49.478;8.986;2022-07-17T11:32:52;4.60;;;1.90;;
32611;SDS011;19030;49.478;8.986;2022-07-17T11:34:53;3.78;;;1.80;;
32611;SDS011;19030;49.478;8.986;2022-07-17T11:36:58;5.10;;;1.80;;
32611;SDS011;19030;49.478;8.986;2022-07-17T11:39:02;4.57;;;1.80;;
32611;SDS011;19030;49.478;8.986;2022-07-17T11:41:10;5.25;;;1.90;;
32611;SDS011;19030;49.478;8.986;2022-07-17T11:43:11;3.72;;;1.77;;
32611;SDS011;19030;49.478;8.986;2022-07-17T11:45:12;4.93;;;2.10;;
32611;SDS011;19030;49.478;8.986;2022-07-17T11:47:18;3.80;;;1.80;;
32611;SDS011;19030;49.478;8.986;2022-07-17T11:49:25;4.22;;;2.15;;
32611;SDS011;19030;49.478;8.986;2022-07-17T11:57:26;4.20;;;2.03;;
32611;SDS011;19030;49.478;8.986;2022-07-17T11:59:31;4.47;;;2.00;;
32611;SDS011;19030;49.478;8.986;2022-07-17T12:01:42;10.35;;;2.15;;
32611;SDS011;19030;49.478;8.986;2022-07-17T12:03:44;3.42;;;1.77;;
32611;SDS011;19030;49.478;8.986;2022-07-17T12:05:55;4.25;;;1.70;;
32611;SDS011;19030;49.478;8.986;2022-07-17T12:07:56;6.05;;;1.95;;
32611;SDS011;19030;49.478;8.986;2022-07-17T12:09:57;3.20;;;1.70;;
32611;SDS011;19030;49.478;8.986;2022-07-17T12:11:58;11.50;;;2.50;;
32611;SDS011;19030;49.478;8.986;2022-07-17T12:14:05;4.55;;;1.90;;
32611;SDS011;19030;49.478;8.986;2022-07-17T12:16:30;4.72;;;1.73;;
32611;SDS011;19030;49.478;8.986;2022-07-17T12:18:31;5.00;;;1.85;;
32611;SDS011;19030;49.478;8.986;2022-07-17T12:20:45;3.25;;;1.70;;
32611;SDS011;19030;49.478;8.986;2022-07-17T12:22:48;4.32;;;2.08;;
32611;SDS011;19030;49.478;8.986;2022-07-17T12:24:50;3.75;;;1.88;;
32611;SDS011;19030;49.478;8.986;2022-07-17T12:26:50;5.43;;;1.77;;
32611;SDS011;19030;49.478;8.986;2022-07-17T12:28:51;3.88;;;1.90;;
32611;SDS011;19030;49.478;8.986;2022-07-17T12:30:52;5.03;;;1.58;;
32611;SDS011;19030;49.478;8.986;2022-07-17T12:32:53;2.55;;;1.60;;